KEYW/EYW METAR and TAF weather

Enter ICAO airport designator
Station Type Date Time Source
KEYW METAR 2019/12/08 06:53 UTC NOAA

KEYW 080653Z AUTO 03004KT 10SM CLR 21/18 A3012 RMK AO2 SLP199 T02110183


Station Type Date Time Source
KEYW Decoded METAR 2019/12/08 06:53 UTC NOAA

KEY WEST INTERNATIONAL AIRPORT , FL, United States (KEYW) 24-33N 81-46W 5M
Dec 08, 2019 - 01:53 AM EST / 2019.12.08 0653 UTC
Wind: from the NNE (030 degrees) at 5 MPH (4 KT):0
Visibility: 10 mile(s):0
Sky conditions: clear
Temperature: 70.0 F (21.1 C)
Dew Point: 64.9 F (18.3 C)
Relative Humidity: 84%
Pressure (altimeter): 30.12 in. Hg (1019 hPa)
ob: KEYW 080653Z AUTO 03004KT 10SM CLR 21/18 A3012 RMK AO2 SLP199 T02110183
cycle: 7

Station Type Date Time Source
KEYW TAF 2019/12/08 06:40 UTC NOAA

TAF KEYW 080538Z 0806/0906 04005KT P6SM FEW025 SCT100
FM081400 08008KT P6SM SCT030

Example: see airport list